sensor_id;sensor_type;location;lat;lon;timestamp;pressure;altitude;pressure_sealevel;temperature;humidity
52469;BME280;38381;53.688;10.776;2022-10-24T00:04:47;100382.63;;;13.71;100.00
52469;BME280;38381;53.688;10.776;2022-10-24T00:09:48;100387.13;;;13.57;100.00
52469;BME280;38381;53.688;10.776;2022-10-24T00:14:48;100407.97;;;13.58;100.00
52469;BME280;38381;53.688;10.776;2022-10-24T00:19:48;100410.50;;;13.63;100.00
52469;BME280;38381;53.688;10.776;2022-10-24T00:24:49;100414.88;;;13.62;100.00
52469;BME280;38381;53.688;10.776;2022-10-24T00:29:49;100412.28;;;13.61;100.00
52469;BME280;38381;53.688;10.776;2022-10-24T00:34:50;100408.00;;;13.55;100.00
52469;BME280;38381;53.688;10.776;2022-10-24T00:39:50;100402.84;;;13.51;100.00
52469;BME280;38381;53.688;10.776;2022-10-24T00:44:52;100395.06;;;13.47;100.00
52469;BME280;38381;53.688;10.776;2022-10-24T00:50:01;100397.63;;;13.52;100.00
52469;BME280;38381;53.688;10.776;2022-10-24T00:55:04;100395.09;;;13.44;100.00
52469;BME280;38381;53.688;10.776;2022-10-24T01:00:13;100384.66;;;13.44;100.00
52469;BME280;38381;53.688;10.776;2022-10-24T01:05:15;100385.50;;;13.50;100.00
52469;BME280;38381;53.688;10.776;2022-10-24T01:37:10;100363.88;;;13.41;100.00
52469;BME280;38381;53.688;10.776;2022-10-24T01:42:15;100355.25;;;13.36;100.00
52469;BME280;38381;53.688;10.776;2022-10-24T01:47:19;100343.84;;;13.45;100.00
52469;BME280;38381;53.688;10.776;2022-10-24T01:52:22;100347.41;;;13.38;100.00
52469;BME280;38381;53.688;10.776;2022-10-24T01:57:28;100330.94;;;13.36;100.00
52469;BME280;38381;53.688;10.776;2022-10-24T02:02:38;100329.25;;;13.32;100.00
52469;BME280;38381;53.688;10.776;2022-10-24T02:07:42;100326.72;;;13.24;100.00
52469;BME280;38381;53.688;10.776;2022-10-24T02:12:48;100336.25;;;13.23;100.00
52469;BME280;38381;53.688;10.776;2022-10-24T02:17:52;100332.81;;;13.23;100.00
52469;BME280;38381;53.688;10.776;2022-10-24T02:23:00;100328.53;;;13.17;100.00
52469;BME280;38381;53.688;10.776;2022-10-24T02:28:13;100326.91;;;13.05;100.00
52469;BME280;38381;53.688;10.776;2022-10-24T02:33:15;100318.97;;;13.16;100.00
52469;BME280;38381;53.688;10.776;2022-10-24T02:38:22;100316.50;;;13.04;100.00
52469;BME280;38381;53.688;10.776;2022-10-24T02:43:26;100310.50;;;12.97;100.00
52469;BME280;38381;53.688;10.776;2022-10-24T02:48:30;100314.75;;;13.07;100.00
52469;BME280;38381;53.688;10.776;2022-10-24T02:53:34;100295.78;;;12.96;100.00
52469;BME280;38381;53.688;10.776;2022-10-24T02:58:35;100304.41;;;13.00;100.00
52469;BME280;38381;53.688;10.776;2022-10-24T03:03:35;100310.56;;;12.91;100.00
52469;BME280;38381;53.688;10.776;2022-10-24T03:08:36;100298.47;;;12.90;100.00
52469;BME280;38381;53.688;10.776;2022-10-24T03:13:36;100297.56;;;12.89;100.00
52469;BME280;38381;53.688;10.776;2022-10-24T03:18:37;100294.09;;;12.91;100.00
52469;BME280;38381;53.688;10.776;2022-10-24T03:23:37;100289.81;;;12.88;100.00
52469;BME280;38381;53.688;10.776;2022-10-24T03:28:38;100305.44;;;12.86;100.00
52469;BME280;38381;53.688;10.776;2022-10-24T03:33:38;100294.16;;;12.84;100.00
52469;BME280;38381;53.688;10.776;2022-10-24T03:38:39;100276.81;;;12.83;100.00
52469;BME280;38381;53.688;10.776;2022-10-24T03:43:39;100290.72;;;12.82;100.00
52469;BME280;38381;53.688;10.776;2022-10-24T03:48:40;100282.13;;;12.73;100.00
52469;BME280;38381;53.688;10.776;2022-10-24T03:53:40;100279.59;;;12.66;100.00
52469;BME280;38381;53.688;10.776;2022-10-24T03:58:41;100263.25;;;12.54;100.00
52469;BME280;38381;53.688;10.776;2022-10-24T04:03:42;100247.66;;;12.51;100.00
52469;BME280;38381;53.688;10.776;2022-10-24T04:08:42;100257.25;;;12.45;100.00
52469;BME280;38381;53.688;10.776;2022-10-24T04:13:43;100264.09;;;12.54;100.00
52469;BME280;38381;53.688;10.776;2022-10-24T04:18:43;100277.13;;;12.54;100.00
52469;BME280;38381;53.688;10.776;2022-10-24T04:23:44;100270.25;;;12.47;100.00
52469;BME280;38381;53.688;10.776;2022-10-24T04:28:44;100265.91;;;12.46;100.00
52469;BME280;38381;53.688;10.776;2022-10-24T04:33:47;100258.03;;;12.55;100.00
52469;BME280;38381;53.688;10.776;2022-10-24T04:38:48;100259.81;;;12.50;100.00
52469;BME280;38381;53.688;10.776;2022-10-24T04:43:48;100250.31;;;12.44;100.00
52469;BME280;38381;53.688;10.776;2022-10-24T04:48:49;100246.97;;;12.35;100.00
52469;BME280;38381;53.688;10.776;2022-10-24T04:53:50;100246.00;;;12.45;100.00
52469;BME280;38381;53.688;10.776;2022-10-24T04:58:50;100238.31;;;12.33;100.00
52469;BME280;38381;53.688;10.776;2022-10-24T05:03:51;100240.13;;;12.21;100.00
52469;BME280;38381;53.688;10.776;2022-10-24T05:08:51;100246.97;;;12.32;100.00
52469;BME280;38381;53.688;10.776;2022-10-24T05:13:52;100254.03;;;12.17;100.00
52469;BME280;38381;53.688;10.776;2022-10-24T05:18:52;100256.59;;;12.22;100.00
52469;BME280;38381;53.688;10.776;2022-10-24T05:23:53;100253.13;;;12.21;100.00
52469;BME280;38381;53.688;10.776;2022-10-24T05:28:53;100262.69;;;12.22;100.00
52469;BME280;38381;53.688;10.776;2022-10-24T05:33:54;100255.78;;;12.15;100.00
52469;BME280;38381;53.688;10.776;2022-10-24T05:38:55;100249.78;;;12.08;100.00
52469;BME280;38381;53.688;10.776;2022-10-24T05:43:55;100254.13;;;12.08;100.00
52469;BME280;38381;53.688;10.776;2022-10-24T05:48:56;100248.09;;;12.03;100.00
52469;BME280;38381;53.688;10.776;2022-10-24T05:53:56;100256.72;;;12.05;100.00
52469;BME280;38381;53.688;10.776;2022-10-24T05:58:58;100257.59;;;12.07;100.00
52469;BME280;38381;53.688;10.776;2022-10-24T06:03:58;100248.94;;;12.05;100.00
52469;BME280;38381;53.688;10.776;2022-10-24T06:08:59;100261.94;;;12.05;100.00
52469;BME280;38381;53.688;10.776;2022-10-24T06:14:00;100269.72;;;12.05;100.00
52469;BME280;38381;53.688;10.776;2022-10-24T06:19:00;100265.38;;;12.05;100.00
52469;BME280;38381;53.688;10.776;2022-10-24T06:24:01;100268.84;;;12.09;100.00
52469;BME280;38381;53.688;10.776;2022-10-24T06:29:02;100260.22;;;12.02;100.00
52469;BME280;38381;53.688;10.776;2022-10-24T06:34:02;100262.72;;;12.13;100.00
52469;BME280;38381;53.688;10.776;2022-10-24T06:39:03;100262.72;;;12.13;100.00
52469;BME280;38381;53.688;10.776;2022-10-24T06:44:04;100259.19;;;12.23;100.00
52469;BME280;38381;53.688;10.776;2022-10-24T06:49:04;100267.94;;;12.16;100.00
52469;BME280;38381;53.688;10.776;2022-10-24T06:54:05;100263.53;;;12.23;100.00
52469;BME280;38381;53.688;10.776;2022-10-24T06:59:10;100267.00;;;12.22;100.00
52469;BME280;38381;53.688;10.776;2022-10-24T07:04:11;100263.44;;;12.35;100.00
52469;BME280;38381;53.688;10.776;2022-10-24T07:09:12;100265.13;;;12.36;100.00
52469;BME280;38381;53.688;10.776;2022-10-24T07:14:12;100270.25;;;12.45;100.00
52469;BME280;38381;53.688;10.776;2022-10-24T07:19:13;100277.22;;;12.40;100.00
52469;BME280;38381;53.688;10.776;2022-10-24T07:24:13;100290.97;;;12.55;100.00
52469;BME280;38381;53.688;10.776;2022-10-24T07:29:14;100294.41;;;12.60;100.00
52469;BME280;38381;53.688;10.776;2022-10-24T07:34:14;100291.69;;;12.74;100.00
52469;BME280;38381;53.688;10.776;2022-10-24T07:39:15;100283.09;;;12.65;100.00
52469;BME280;38381;53.688;10.776;2022-10-24T07:44:16;100294.31;;;12.71;100.00
52469;BME280;38381;53.688;10.776;2022-10-24T07:49:16;100293.31;;;12.82;100.00
52469;BME280;38381;53.688;10.776;2022-10-24T07:54:16;100296.63;;;12.98;100.00
52469;BME280;38381;53.688;10.776;2022-10-24T07:59:17;100292.16;;;13.08;100.00
52469;BME280;38381;53.688;10.776;2022-10-24T08:04:17;100285.00;;;13.32;100.00
52469;BME280;38381;53.688;10.776;2022-10-24T08:09:18;100292.78;;;13.33;100.00
52469;BME280;38381;53.688;10.776;2022-10-24T08:14:19;100292.66;;;13.42;100.00
52469;BME280;38381;53.688;10.776;2022-10-24T08:19:20;100288.06;;;13.61;100.00
52469;BME280;38381;53.688;10.776;2022-10-24T08:24:20;100294.59;;;13.90;99.46
52469;BME280;38381;53.688;10.776;2022-10-24T08:29:21;100286.56;;;14.07;99.18
52469;BME280;38381;53.688;10.776;2022-10-24T08:34:22;100282.75;;;14.25;97.51
52469;BME280;38381;53.688;10.776;2022-10-24T08:39:23;100284.28;;;14.40;97.48
52469;BME280;38381;53.688;10.776;2022-10-24T08:44:27;100290.09;;;14.57;97.40
52469;BME280;38381;53.688;10.776;2022-10-24T08:49:34;100290.53;;;14.81;96.27
52469;BME280;38381;53.688;10.776;2022-10-24T08:54:38;100283.94;;;15.08;94.72
52469;BME280;38381;53.688;10.776;2022-10-24T08:59:40;100280.00;;;15.29;93.84
52469;BME280;38381;53.688;10.776;2022-10-24T09:04:55;100277.81;;;15.51;93.31
52469;BME280;38381;53.688;10.776;2022-10-24T09:10:30;100272.13;;;15.73;91.56
52469;BME280;38381;53.688;10.776;2022-10-24T09:15:34;100267.66;;;15.78;90.57
52469;BME280;38381;53.688;10.776;2022-10-24T09:20:34;100271.38;;;16.05;89.58
52469;BME280;38381;53.688;10.776;2022-10-24T09:25:37;100270.81;;;16.28;87.81
52469;BME280;38381;53.688;10.776;2022-10-24T09:30:41;100274.53;;;16.54;86.71
52469;BME280;38381;53.688;10.776;2022-10-24T09:35:42;100279.66;;;16.58;86.87
52469;BME280;38381;53.688;10.776;2022-10-24T09:40:51;100274.88;;;16.74;86.68
52469;BME280;38381;53.688;10.776;2022-10-24T09:51:17;100282.44;;;17.18;84.17
52469;BME280;38381;53.688;10.776;2022-10-24T09:56:19;100286.66;;;17.23;83.94
52469;BME280;38381;53.688;10.776;2022-10-24T10:01:20;100271.38;;;17.38;81.67
52469;BME280;38381;53.688;10.776;2022-10-24T10:06:21;100267.63;;;17.46;81.39
52469;BME280;38381;53.688;10.776;2022-10-24T10:11:26;100265.47;;;17.31;80.97
52469;BME280;38381;53.688;10.776;2022-10-24T10:16:32;100269.53;;;17.41;81.29
52469;BME280;38381;53.688;10.776;2022-10-24T10:22:12;100264.88;;;17.21;81.46
52469;BME280;38381;53.688;10.776;2022-10-24T10:32:45;100255.94;;;17.57;80.54
52469;BME280;38381;53.688;10.776;2022-10-24T10:43:36;100248.31;;;17.77;77.22
52469;BME280;38381;53.688;10.776;2022-10-24T11:00:22;100230.06;;;17.74;76.22
52469;BME280;38381;53.688;10.776;2022-10-24T11:05:35;100231.13;;;18.23;74.13
52469;BME280;38381;53.688;10.776;2022-10-24T11:10:52;100241.94;;;18.13;71.39
52469;BME280;38381;53.688;10.776;2022-10-24T11:15:57;100244.09;;;18.53;69.59
52469;BME280;38381;53.688;10.776;2022-10-24T11:21:14;100243.66;;;18.65;68.72
52469;BME280;38381;53.688;10.776;2022-10-24T11:26:29;100246.78;;;18.77;67.82
52469;BME280;38381;53.688;10.776;2022-10-24T11:31:40;100238.75;;;18.81;66.90
52469;BME280;38381;53.688;10.776;2022-10-24T11:36:57;100241.47;;;18.53;65.91
52469;BME280;38381;53.688;10.776;2022-10-24T11:52:30;100242.97;;;18.60;65.24
52469;BME280;38381;53.688;10.776;2022-10-24T11:57:32;100240.78;;;18.48;64.46
52469;BME280;38381;53.688;10.776;2022-10-24T12:08:12;100236.41;;;18.72;66.90
52469;BME280;38381;53.688;10.776;2022-10-24T12:14:00;100230.66;;;18.87;64.20
52469;BME280;38381;53.688;10.776;2022-10-24T12:19:10;100243.97;;;18.83;64.14
52469;BME280;38381;53.688;10.776;2022-10-24T12:24:33;100241.66;;;18.72;64.48
52469;BME280;38381;53.688;10.776;2022-10-24T12:29:38;100235.69;;;18.68;65.36
52469;BME280;38381;53.688;10.776;2022-10-24T12:34:40;100232.75;;;18.76;65.27
52469;BME280;38381;53.688;10.776;2022-10-24T12:39:46;100234.19;;;18.61;66.06
52469;BME280;38381;53.688;10.776;2022-10-24T12:45:33;100237.72;;;18.60;65.08
52469;BME280;38381;53.688;10.776;2022-10-24T13:12:08;100246.59;;;18.04;65.00
52469;BME280;38381;53.688;10.776;2022-10-24T13:17:20;100234.00;;;18.16;65.36
52469;BME280;38381;53.688;10.776;2022-10-24T13:22:29;100255.09;;;17.56;67.46
52469;BME280;38381;53.688;10.776;2022-10-24T13:27:32;100235.69;;;17.62;72.50
52469;BME280;38381;53.688;10.776;2022-10-24T13:32:33;100238.34;;;17.32;74.35
52469;BME280;38381;53.688;10.776;2022-10-24T13:37:41;100242.41;;;17.13;74.90
52469;BME280;38381;53.688;10.776;2022-10-24T13:42:50;100246.56;;;17.20;74.89
52469;BME280;38381;53.688;10.776;2022-10-24T13:47:58;100250.66;;;17.28;74.78
52469;BME280;38381;53.688;10.776;2022-10-24T13:53:23;100251.63;;;17.26;73.90
52469;BME280;38381;53.688;10.776;2022-10-24T13:58:26;100254.34;;;17.23;73.40
52469;BME280;38381;53.688;10.776;2022-10-24T14:03:29;100255.16;;;17.25;71.23
52469;BME280;38381;53.688;10.776;2022-10-24T14:08:33;100273.41;;;17.28;70.91
52469;BME280;38381;53.688;10.776;2022-10-24T14:13:37;100265.72;;;17.22;70.01
52469;BME280;38381;53.688;10.776;2022-10-24T14:18:43;100270.09;;;17.21;69.68
52469;BME280;38381;53.688;10.776;2022-10-24T14:23:53;100267.22;;;16.99;69.02
52469;BME280;38381;53.688;10.776;2022-10-24T14:28:57;100269.78;;;17.02;69.27
52469;BME280;38381;53.688;10.776;2022-10-24T14:33:58;100276.47;;;17.13;68.40
52469;BME280;38381;53.688;10.776;2022-10-24T14:38:59;100272.91;;;17.15;66.90
52469;BME280;38381;53.688;10.776;2022-10-24T14:44:00;100279.97;;;17.12;67.80
52469;BME280;38381;53.688;10.776;2022-10-24T14:49:36;100281.59;;;17.16;67.95
52469;BME280;38381;53.688;10.776;2022-10-24T14:54:37;100280.19;;;17.04;67.17
52469;BME280;38381;53.688;10.776;2022-10-24T14:59:39;100280.84;;;17.12;67.24
52469;BME280;38381;53.688;10.776;2022-10-24T15:04:43;100290.13;;;16.93;66.78
52469;BME280;38381;53.688;10.776;2022-10-24T15:14:52;100290.25;;;16.88;67.81
52469;BME280;38381;53.688;10.776;2022-10-24T15:19:55;100289.19;;;16.94;67.66
52469;BME280;38381;53.688;10.776;2022-10-24T15:24:59;100285.19;;;16.80;68.65
52469;BME280;38381;53.688;10.776;2022-10-24T15:30:03;100293.69;;;16.90;68.14
52469;BME280;38381;53.688;10.776;2022-10-24T15:35:03;100291.13;;;16.87;68.41
52469;BME280;38381;53.688;10.776;2022-10-24T15:40:11;100303.31;;;16.55;69.32
52469;BME280;38381;53.688;10.776;2022-10-24T15:45:14;100298.28;;;16.46;69.66
52469;BME280;38381;53.688;10.776;2022-10-24T15:50:16;100312.38;;;16.40;70.11
52469;BME280;38381;53.688;10.776;2022-10-24T15:55:18;100310.94;;;16.28;70.31
52469;BME280;38381;53.688;10.776;2022-10-24T16:00:21;100318.28;;;16.13;70.57
52469;BME280;38381;53.688;10.776;2022-10-24T16:05:24;100325.81;;;16.26;70.05
52469;BME280;38381;53.688;10.776;2022-10-24T16:10:26;100336.88;;;16.02;70.94
52469;BME280;38381;53.688;10.776;2022-10-24T16:15:29;100345.59;;;16.01;70.91
52469;BME280;38381;53.688;10.776;2022-10-24T16:20:32;100344.16;;;15.87;71.65
52469;BME280;38381;53.688;10.776;2022-10-24T16:25:36;100340.63;;;15.88;71.85
52469;BME280;38381;53.688;10.776;2022-10-24T16:30:38;100342.41;;;15.86;72.34
52469;BME280;38381;53.688;10.776;2022-10-24T16:35:39;100342.75;;;15.71;72.68
52469;BME280;38381;53.688;10.776;2022-10-24T16:40:42;100349.66;;;15.75;72.46
52469;BME280;38381;53.688;10.776;2022-10-24T16:45:43;100353.38;;;15.62;73.04
52469;BME280;38381;53.688;10.776;2022-10-24T16:50:46;100354.19;;;15.65;72.98
52469;BME280;38381;53.688;10.776;2022-10-24T16:55:48;100359.66;;;15.53;73.58
52469;BME280;38381;53.688;10.776;2022-10-24T17:00:48;100364.22;;;15.43;74.24
52469;BME280;38381;53.688;10.776;2022-10-24T17:05:49;100361.53;;;15.46;74.46
52469;BME280;38381;53.688;10.776;2022-10-24T17:10:53;100362.88;;;15.22;75.15
52469;BME280;38381;53.688;10.776;2022-10-24T17:15:54;100359.34;;;15.25;75.26
52469;BME280;38381;53.688;10.776;2022-10-24T17:20:54;100365.06;;;15.44;74.43
52469;BME280;38381;53.688;10.776;2022-10-24T17:25:59;100368.56;;;15.43;74.72
52469;BME280;38381;53.688;10.776;2022-10-24T17:31:00;100378.09;;;15.45;74.42
52469;BME280;38381;53.688;10.776;2022-10-24T17:36:01;100383.53;;;15.36;74.73
52469;BME280;38381;53.688;10.776;2022-10-24T17:41:23;100385.13;;;15.42;74.11
52469;BME280;38381;53.688;10.776;2022-10-24T17:46:24;100394.69;;;15.44;73.92
52469;BME280;38381;53.688;10.776;2022-10-24T17:51:26;100399.97;;;15.41;73.90
52469;BME280;38381;53.688;10.776;2022-10-24T17:56:27;100411.09;;;15.53;73.81
52469;BME280;38381;53.688;10.776;2022-10-24T18:01:27;100411.31;;;15.40;74.41
52469;BME280;38381;53.688;10.776;2022-10-24T18:06:28;100415.59;;;15.44;74.59
52469;BME280;38381;53.688;10.776;2022-10-24T18:11:28;100415.63;;;15.41;74.75
52469;BME280;38381;53.688;10.776;2022-10-24T18:16:28;100416.47;;;15.43;75.10
52469;BME280;38381;53.688;10.776;2022-10-24T18:21:29;100420.72;;;15.49;74.82
52469;BME280;38381;53.688;10.776;2022-10-24T18:26:29;100429.75;;;15.33;75.49
52469;BME280;38381;53.688;10.776;2022-10-24T18:31:30;100423.16;;;15.12;76.55
52469;BME280;38381;53.688;10.776;2022-10-24T18:36:30;100422.00;;;15.28;76.04
52469;BME280;38381;53.688;10.776;2022-10-24T18:46:34;100432.72;;;15.13;76.68
52469;BME280;38381;53.688;10.776;2022-10-24T18:51:42;100431.22;;;14.99;77.11
52469;BME280;38381;53.688;10.776;2022-10-24T18:56:46;100438.69;;;15.19;76.32
52469;BME280;38381;53.688;10.776;2022-10-24T19:06:57;100438.09;;;15.03;77.37
52469;BME280;38381;53.688;10.776;2022-10-24T19:11:59;100439.97;;;14.95;77.79
52469;BME280;38381;53.688;10.776;2022-10-24T19:16:59;100447.09;;;14.87;77.88
52469;BME280;38381;53.688;10.776;2022-10-24T19:22:00;100452.31;;;14.85;78.24
52469;BME280;38381;53.688;10.776;2022-10-24T19:27:01;100450.91;;;14.64;79.48
52469;BME280;38381;53.688;10.776;2022-10-24T19:32:01;100448.41;;;14.58;79.85
52469;BME280;38381;53.688;10.776;2022-10-24T19:37:02;100454.50;;;14.57;79.85
52469;BME280;38381;53.688;10.776;2022-10-24T19:42:03;100451.97;;;14.49;80.10
52469;BME280;38381;53.688;10.776;2022-10-24T19:47:03;100456.13;;;14.64;79.83
52469;BME280;38381;53.688;10.776;2022-10-24T19:52:04;100459.75;;;14.54;80.41
52469;BME280;38381;53.688;10.776;2022-10-24T19:57:04;100458.06;;;14.48;80.49
52469;BME280;38381;53.688;10.776;2022-10-24T20:02:05;100460.00;;;14.36;81.39
52469;BME280;38381;53.688;10.776;2022-10-24T20:07:06;100467.69;;;14.43;80.91
52469;BME280;38381;53.688;10.776;2022-10-24T20:12:08;100479.19;;;14.32;81.86
52469;BME280;38381;53.688;10.776;2022-10-24T20:17:08;100483.34;;;14.45;81.17
52469;BME280;38381;53.688;10.776;2022-10-24T20:22:09;100485.88;;;14.51;80.93
52469;BME280;38381;53.688;10.776;2022-10-24T20:27:09;100491.25;;;14.39;81.22
52469;BME280;38381;53.688;10.776;2022-10-24T20:32:10;100497.44;;;14.32;81.71
52469;BME280;38381;53.688;10.776;2022-10-24T20:37:10;100502.69;;;14.27;81.91
52469;BME280;38381;53.688;10.776;2022-10-24T20:42:11;100502.66;;;14.32;82.25
52469;BME280;38381;53.688;10.776;2022-10-24T20:47:11;100509.59;;;14.31;82.12
52469;BME280;38381;53.688;10.776;2022-10-24T20:52:11;100518.50;;;14.16;82.47
52469;BME280;38381;53.688;10.776;2022-10-24T20:57:13;100535.19;;;14.03;83.27
52469;BME280;38381;53.688;10.776;2022-10-24T21:02:13;100533.44;;;14.00;83.70
52469;BME280;38381;53.688;10.776;2022-10-24T21:07:14;100543.94;;;13.96;84.41
52469;BME280;38381;53.688;10.776;2022-10-24T21:12:14;100538.72;;;13.99;84.93
52469;BME280;38381;53.688;10.776;2022-10-24T21:17:14;100551.03;;;13.81;85.81
52469;BME280;38381;53.688;10.776;2022-10-24T21:22:15;100559.81;;;13.74;86.52
52469;BME280;38381;53.688;10.776;2022-10-24T21:27:15;100556.44;;;13.64;87.46
52469;BME280;38381;53.688;10.776;2022-10-24T21:32:16;100557.28;;;13.66;87.36
52469;BME280;38381;53.688;10.776;2022-10-24T21:37:16;100564.22;;;13.67;87.44
52469;BME280;38381;53.688;10.776;2022-10-24T21:42:16;100567.88;;;13.50;88.82
52469;BME280;38381;53.688;10.776;2022-10-24T21:47:17;100570.41;;;13.56;88.53
52469;BME280;38381;53.688;10.776;2022-10-24T21:52:17;100576.47;;;13.56;88.22
52469;BME280;38381;53.688;10.776;2022-10-24T21:57:18;100581.84;;;13.38;89.55
52469;BME280;38381;53.688;10.776;2022-10-24T22:02:18;100581.81;;;13.42;89.09
52469;BME280;38381;53.688;10.776;2022-10-24T22:07:18;100585.34;;;13.34;89.66
52469;BME280;38381;53.688;10.776;2022-10-24T22:12:19;100587.91;;;13.41;89.14
52469;BME280;38381;53.688;10.776;2022-10-24T22:17:19;100580.16;;;13.26;90.17
52469;BME280;38381;53.688;10.776;2022-10-24T22:22:20;100587.13;;;13.27;90.05
52469;BME280;38381;53.688;10.776;2022-10-24T22:27:20;100595.78;;;13.31;89.98
52469;BME280;38381;53.688;10.776;2022-10-24T22:32:21;100596.72;;;13.19;90.80
52469;BME280;38381;53.688;10.776;2022-10-24T22:37:25;100601.88;;;13.25;90.52
52469;BME280;38381;53.688;10.776;2022-10-24T22:42:27;100608.94;;;13.11;91.27
52469;BME280;38381;53.688;10.776;2022-10-24T22:52:31;100609.78;;;13.08;91.48
52469;BME280;38381;53.688;10.776;2022-10-24T22:57:32;100609.78;;;13.11;91.00
52469;BME280;38381;53.688;10.776;2022-10-24T23:02:34;100618.44;;;13.15;90.59
52469;BME280;38381;53.688;10.776;2022-10-24T23:07:47;100621.09;;;13.05;90.88
52469;BME280;38381;53.688;10.776;2022-10-24T23:12:49;100627.25;;;12.91;91.63
52469;BME280;38381;53.688;10.776;2022-10-24T23:17:49;100629.88;;;12.92;91.46
52469;BME280;38381;53.688;10.776;2022-10-24T23:22:51;100631.63;;;12.82;92.26
52469;BME280;38381;53.688;10.776;2022-10-24T23:33:20;100641.19;;;12.80;92.18
52469;BME280;38381;53.688;10.776;2022-10-24T23:38:21;100639.41;;;12.88;91.47
52469;BME280;38381;53.688;10.776;2022-10-24T23:43:22;100638.56;;;12.83;91.27
52469;BME280;38381;53.688;10.776;2022-10-24T23:48:42;100640.38;;;12.67;92.10
52469;BME280;38381;53.688;10.776;2022-10-24T23:53:50;100640.41;;;12.60;92.52
52469;BME280;38381;53.688;10.776;2022-10-24T23:58:52;100636.13;;;12.48;92.47
